Terminal Aerodrome Forecast
Issued by NWS

Home | Current Version | Previous Version | Text Only | Print | Product List | Glossary On
Versions: 1 2 3 4 5 6 7 8 9 10 11 12 13 14 15 16
453
FTUS43 KGRR 220425 AAB
TAFBTL
TAF AMD
KBTL 220425Z 2204/2224 21007KT P6SM VCTS BKN050CB BKN100
      TEMPO 2205/2207 3SM -TSRA BR OVC025CB
     FM220800 22011KT 3SM -SHRA BR OVC035
     FM221300 25012G22KT P6SM BKN025
     FM221900 30013G23KT P6SM BKN040=

USA.gov is the U.S. government's official web portal to all federal, state and local government web resources and services.